Capitol Logistics 316


KRFD
Chicago/Rockford International Airport
Rockford, Illinois, US
PANC
Ted Stevens Anchorage International Airport
Anchorage, Alaska, US

Route Details

Aircraft Information
Primary: Boeing 767-300BDSF
Backup: Not Available
Route Data
Distance: 2468nm
Sched. Duration: 6h 00m
Avg. Duration: 6h 26m (+27m)
Times Flown: 14
Recm'd Route: ODI J36 GEP MOT J483 VLN J475 YWV NCA11 REMBY WITTI4
Planned Altitude: 34,000ft
Origin Wx: KRFD 281854Z 20009KT 10SM BKN250 11/M03 A3000 RMK AO2 SLP165 T01061033
Dest. Wx: PANC 281853Z 06003KT 1/4SM R07R/1800V2800FT FZFG VV002 M03/M04 A3004 RMK AO2 SLP173 I1000 T10281039
Notes:

Financial History
Total Freight: 1,354,373lbs
Average Load: 96,741lbs/flt
Fuel Used: 1,014,952lbs
Avg. Fuel Used: 72,497lbs/flt
Fuel Expense: $730,748
Avg. Fuel Expense: $52,196
Avg. Fuel Cost: $0.72/lbs
Total Gross Income: $2,803,608
Pilot Pay: $2,346
Total Expenses: $306,056
Total Revenue: $1,746,477
Average Revenue: $200,257.71